LSGG/GVA METAR and TAF weather

Enter ICAO airport designator
Station Type Date Time Source
LSGG METAR 2021/01/17 19:20 UTC NOAA

LSGG 171920Z 30003KT 9999 FEW015 SCT040 BKN065 01/00 Q1026 R04/29//// NOSIG


Station Type Date Time Source
LSGG Decoded METAR 2021/01/17 19:20 UTC NOAA

Geneve-Cointrin, Switzerland (LSGG) 46-15N 006-08E 416M
Jan 17, 2021 - 02:20 PM EST / 2021.01.17 1920 UTC
Wind: from the WNW (300 degrees) at 3 MPH (3 KT):0
Visibility: greater than 7 mile(s):0
Sky conditions: mostly cloudy
Temperature: 33 F (1 C)
Dew Point: 32 F (0 C)
Relative Humidity: 93%
Pressure (altimeter): 30.30 in. Hg (1026 hPa)
ob: LSGG 171920Z 30003KT 9999 FEW015 SCT040 BKN065 01/00 Q1026 R04/29//// NOSIG
cycle: 19

Station Type Date Time Source
LSGG TAF 2021/01/17 18:35 UTC NOAA

TAF LSGG 171725Z 1718/1824 23008KT 9999 FEW005 BKN040 TX03/1814Z TNM02/1805Z PROB30 1803/1806 4500

Example: see airport list